Time;durP1;ratioP1;P1;durP2;ratioP2;P2;SDS_P1;SDS_P2;PMS_P1;PMS_P2;Temp;Humidity;BMP_temperature;BMP_pressure;BME280_temperature;BME280_humidity;BME280_pressure;Samples;Min_cycle;Max_cycle;Signal;HPM_P1;HPM_P2
2022/05/05 00:02:16;;;;;;;10.57;8.80;;;14.00;99.90;;;;;;5026631;28;20417;-88
2022/05/05 00:04:43;;;;;;;10.17;8.40;;;13.90;99.90;;;;;;5025275;28;20425;-87
2022/05/05 00:07:10;;;;;;;10.63;8.40;;;13.80;99.90;;;;;;5034504;28;20432;-87
2022/05/05 00:09:37;;;;;;;10.90;8.57;;;13.90;99.90;;;;;;5039539;28;20458;-86
2022/05/05 00:14:51;;;;;;;9.63;8.60;;;13.80;99.90;;;;;;5021949;28;20490;-85
2022/05/05 00:17:18;;;;;;;9.93;8.80;;;13.80;99.90;;;;;;5021666;28;20496;-86
2022/05/05 00:19:45;;;;;;;12.57;9.67;;;13.60;99.90;;;;;;5024243;28;20522;-86
2022/05/05 00:22:12;;;;;;;10.23;8.30;;;13.70;99.90;;;;;;5031550;28;20454;-86
2022/05/05 00:24:39;;;;;;;9.73;8.10;;;13.70;99.90;;;;;;5023269;28;20745;-87
2022/05/05 00:27:08;;;;;;;11.30;8.20;;;13.70;99.90;;;;;;5019887;28;20553;-88
2022/05/05 00:29:35;;;;;;;10.67;9.13;;;13.70;99.90;;;;;;5021296;28;20432;-86
2022/05/05 00:32:03;;;;;;;9.77;8.77;;;13.70;99.90;;;;;;5022886;28;21063;-88
2022/05/05 00:34:29;;;;;;;11.10;8.73;;;13.60;99.90;;;;;;5022376;28;20426;-87
2022/05/05 00:36:56;;;;;;;13.87;9.60;;;13.60;99.90;;;;;;5031123;28;20453;-88
2022/05/05 00:39:23;;;;;;;12.20;9.43;;;13.70;99.90;;;;;;5034829;28;20447;-88
2022/05/05 00:41:50;;;;;;;9.33;8.33;;;13.70;99.90;;;;;;5026915;28;20480;-87
2022/05/05 00:44:18;;;;;;;10.07;8.97;;;13.60;99.90;;;;;;5022628;28;20457;-87
2022/05/05 00:46:49;;;;;;;10.23;9.20;;;13.60;99.90;;;;;;5028280;28;20554;-87
2022/05/05 00:49:17;;;;;;;8.70;7.80;;;13.60;99.90;;;;;;5031312;28;20449;-88
2022/05/05 00:51:43;;;;;;;10.90;8.47;;;13.60;99.90;;;;;;5027899;28;20544;-87
2022/05/05 00:54:10;;;;;;;10.00;7.97;;;13.80;99.90;;;;;;5026168;28;20439;-88
2022/05/05 00:56:38;;;;;;;10.40;8.70;;;13.90;99.90;;;;;;5029835;28;20537;-88
2022/05/05 00:59:06;;;;;;;11.40;8.77;;;13.80;99.90;;;;;;5026651;28;20417;-88
2022/05/05 01:01:35;;;;;;;9.40;7.83;;;13.70;99.90;;;;;;5024581;28;20827;-87
2022/05/05 01:04:03;;;;;;;11.00;8.40;;;13.80;99.90;;;;;;5024178;28;20454;-87
2022/05/05 01:06:31;;;;;;;10.73;8.90;;;13.70;99.90;;;;;;5024522;28;20409;-87
2022/05/05 01:08:58;;;;;;;11.50;9.20;;;13.70;99.90;;;;;;5024016;28;20482;-87
2022/05/05 01:11:25;;;;;;;11.37;8.80;;;13.70;99.90;;;;;;5023233;28;20532;-89
2022/05/05 01:13:52;;;;;;;10.80;8.40;;;13.70;99.90;;;;;;5023105;28;20496;-87
2022/05/05 01:16:19;;;;;;;11.20;8.97;;;13.70;99.90;;;;;;5024015;28;20452;-88
2022/05/05 01:18:47;;;;;;;9.20;8.27;;;13.70;99.90;;;;;;5022721;28;20465;-88
2022/05/05 01:21:14;;;;;;;9.97;8.17;;;13.60;99.90;;;;;;5022759;28;20477;-88
2022/05/05 01:23:42;;;;;;;10.77;9.20;;;13.60;99.90;;;;;;5023324;28;20429;-88
2022/05/05 01:28:54;;;;;;;10.90;8.37;;;13.60;99.90;;;;;;5022140;28;20396;-88
2022/05/05 01:31:21;;;;;;;9.60;7.27;;;13.70;99.90;;;;;;5024167;28;20478;-88
2022/05/05 01:33:56;;;;;;;9.60;8.57;;;13.70;99.90;;;;;;5036629;28;20421;-88
2022/05/05 01:36:23;;;;;;;10.40;8.77;;;13.70;99.90;;;;;;5031682;28;20449;-87
2022/05/05 01:38:51;;;;;;;9.80;8.47;;;13.60;99.90;;;;;;5019625;28;20580;-87
2022/05/05 01:41:18;;;;;;;9.17;7.80;;;13.60;99.90;;;;;;5024547;28;20491;-87
2022/05/05 01:43:46;;;;;;;8.47;7.63;;;13.60;99.90;;;;;;5026620;28;20429;-88
2022/05/05 01:46:15;;;;;;;9.83;8.00;;;13.60;99.90;;;;;;5028403;28;20456;-88
2022/05/05 01:48:42;;;;;;;9.67;8.60;;;13.70;99.90;;;;;;5025820;28;20829;-88
2022/05/05 01:51:10;;;;;;;9.33;8.10;;;13.70;99.90;;;;;;5025052;28;20491;-88
2022/05/05 01:53:37;;;;;;;11.50;8.80;;;13.60;99.90;;;;;;5025254;28;20420;-87
2022/05/05 01:56:11;;;;;;;11.07;8.90;;;13.50;99.90;;;;;;5029666;28;20421;-88
2022/05/05 01:58:41;;;;;;;9.90;7.57;;;13.50;99.90;;;;;;5033246;28;20474;-88
2022/05/05 02:01:08;;;;;;;8.57;7.43;;;13.50;99.90;;;;;;5028770;28;20474;-88
2022/05/05 02:03:36;;;;;;;9.63;8.60;;;13.50;99.90;;;;;;5027088;28;20533;-88
2022/05/05 02:06:03;;;;;;;9.70;8.10;;;13.40;99.90;;;;;;5023080;28;20478;-88
2022/05/05 02:08:29;;;;;;;9.30;8.30;;;13.50;99.90;;;;;;5024025;28;20428;-87
2022/05/05 02:10:56;;;;;;;9.00;8.00;;;13.50;99.90;;;;;;5024807;28;20480;-89
2022/05/05 02:13:25;;;;;;;11.83;8.53;;;13.50;99.90;;;;;;5027437;28;20486;-88
2022/05/05 02:15:52;;;;;;;9.20;7.73;;;13.50;99.90;;;;;;5030775;28;20438;-86
2022/05/05 02:18:18;;;;;;;15.00;9.07;;;13.50;99.90;;;;;;5029973;28;20524;-86
2022/05/05 02:20:45;;;;;;;10.43;8.23;;;13.40;99.90;;;;;;5027358;28;20501;-87
2022/05/05 02:23:17;;;;;;;12.00;9.50;;;13.40;99.90;;;;;;5022381;28;20450;-88
2022/05/05 02:25:44;;;;;;;10.77;9.20;;;13.40;99.90;;;;;;5021734;28;21032;-88
2022/05/05 02:28:11;;;;;;;9.57;8.40;;;13.30;99.90;;;;;;5021251;28;20460;-87
2022/05/05 02:30:39;;;;;;;12.53;8.03;;;13.30;99.90;;;;;;5022252;28;20485;-89
2022/05/05 02:33:07;;;;;;;9.53;8.40;;;13.30;99.90;;;;;;5020451;28;20489;-85
2022/05/05 02:35:34;;;;;;;12.90;8.67;;;13.20;99.90;;;;;;5024048;28;20472;-89
2022/05/05 02:40:45;;;;;;;9.93;8.80;;;13.30;99.90;;;;;;5025199;28;20472;-87
2022/05/05 02:43:12;;;;;;;9.37;8.20;;;13.20;99.90;;;;;;5023357;28;20448;-88
2022/05/05 02:45:41;;;;;;;9.30;7.77;;;13.20;99.90;;;;;;5023961;28;20454;-86
2022/05/05 02:48:08;;;;;;;10.10;9.00;;;13.20;99.90;;;;;;5022721;28;20895;-87
2022/05/05 02:50:35;;;;;;;10.70;8.70;;;13.20;99.90;;;;;;5022054;28;20468;-88
2022/05/05 02:54:46;;;;;;;9.07;8.10;;;13.20;99.90;;;;;;5025719;28;20473;-88
2022/05/05 02:55:49;;;;;;;8.87;7.30;;;13.10;99.90;;;;;;5036395;28;20450;-87
2022/05/05 02:58:19;;;;;;;11.90;8.60;;;13.10;99.90;;;;;;5029248;28;20486;-85
2022/05/05 03:00:47;;;;;;;10.60;8.70;;;13.10;99.90;;;;;;5016684;28;20472;-87
2022/05/05 03:03:14;;;;;;;9.50;8.50;;;13.20;99.90;;;;;;5017347;28;20478;-86
2022/05/05 03:05:41;;;;;;;9.63;7.90;;;13.00;99.90;;;;;;5018182;28;20932;-86
2022/05/05 03:08:08;;;;;;;9.50;7.67;;;13.00;99.90;;;;;;5019055;28;20494;-86
2022/05/05 03:10:35;;;;;;;10.23;8.63;;;12.90;99.90;;;;;;5033288;28;20486;-88
2022/05/05 03:13:02;;;;;;;11.70;9.13;;;12.90;99.90;;;;;;5022109;28;20518;-87
2022/05/05 03:15:29;;;;;;;10.33;8.50;;;12.90;99.90;;;;;;5024881;28;20592;-87
2022/05/05 03:17:58;;;;;;;10.70;8.77;;;12.90;99.90;;;;;;5037934;28;20524;-88
2022/05/05 03:20:25;;;;;;;9.90;7.67;;;12.90;99.90;;;;;;5033979;28;20456;-88
2022/05/05 03:22:52;;;;;;;9.07;7.73;;;12.90;99.90;;;;;;5023131;28;20761;-87
2022/05/05 03:25:19;;;;;;;9.67;8.37;;;12.90;99.90;;;;;;5019802;28;20442;-87
2022/05/05 03:27:46;;;;;;;10.60;8.20;;;12.90;99.90;;;;;;5021868;28;20544;-88
2022/05/05 03:30:13;;;;;;;10.13;8.80;;;13.00;99.90;;;;;;5032484;28;20513;-87
2022/05/05 03:32:40;;;;;;;13.70;8.57;;;13.00;99.90;;;;;;5024919;28;20429;-88
2022/05/05 03:35:09;;;;;;;9.17;8.23;;;13.00;99.90;;;;;;5023477;28;20545;-87
2022/05/05 03:37:36;;;;;;;10.27;8.43;;;13.00;99.90;;;;;;5039484;23;20936;-86
2022/05/05 03:40:04;;;;;;;10.00;8.97;;;13.00;99.90;;;;;;5026767;28;20429;-87
2022/05/05 03:42:31;;;;;;;10.03;8.83;;;12.90;99.90;;;;;;5027445;28;20494;-87
2022/05/05 03:44:58;;;;;;;10.63;8.20;;;12.90;99.90;;;;;;5027212;28;20448;-86
2022/05/05 03:47:24;;;;;;;11.87;8.93;;;12.90;99.90;;;;;;5026733;28;20492;-87
2022/05/05 03:49:51;;;;;;;10.67;7.70;;;13.00;99.90;;;;;;5028533;28;20456;-85
2022/05/05 03:52:19;;;;;;;10.57;9.47;;;12.90;99.90;;;;;;5024385;28;20506;-86
2022/05/05 03:54:46;;;;;;;10.80;8.33;;;12.90;99.90;;;;;;5030481;28;20445;-87
2022/05/05 03:57:13;;;;;;;9.13;8.23;;;12.90;99.90;;;;;;5030626;28;20500;-88
2022/05/05 03:59:40;;;;;;;9.23;8.30;;;12.90;99.90;;;;;;5026450;28;20490;-87
2022/05/05 04:02:07;;;;;;;12.63;9.70;;;12.90;99.90;;;;;;5026849;28;20477;-87
2022/05/05 04:04:34;;;;;;;11.37;8.57;;;12.80;99.90;;;;;;5026649;28;20469;-85
2022/05/05 04:07:00;;;;;;;9.30;8.00;;;12.80;99.90;;;;;;5025078;28;20565;-86
2022/05/05 04:09:29;;;;;;;11.53;9.90;;;12.90;99.90;;;;;;5024784;28;20436;-86
2022/05/05 04:11:56;;;;;;;9.87;8.67;;;12.90;99.90;;;;;;5025002;28;20450;-86
2022/05/05 04:14:22;;;;;;;12.30;9.20;;;12.80;99.90;;;;;;5025041;28;20457;-87
2022/05/05 04:16:49;;;;;;;11.00;9.10;;;12.80;99.90;;;;;;5025957;28;20998;-87
2022/05/05 04:19:16;;;;;;;10.63;8.90;;;12.80;99.90;;;;;;5025379;28;20572;-87
2022/05/05 04:21:43;;;;;;;11.23;9.47;;;12.90;99.90;;;;;;5026543;28;20435;-87
2022/05/05 04:24:10;;;;;;;12.77;8.50;;;12.90;99.90;;;;;;5026521;28;20429;-85
2022/05/05 04:26:38;;;;;;;10.07;8.70;;;13.00;99.90;;;;;;5026409;28;20474;-86
2022/05/05 04:29:05;;;;;;;9.70;8.63;;;13.00;99.90;;;;;;5027079;28;20526;-87
2022/05/05 04:31:33;;;;;;;11.37;9.23;;;13.00;99.90;;;;;;5025965;28;20448;-86
2022/05/05 04:34:00;;;;;;;10.57;9.13;;;13.00;99.90;;;;;;5025243;28;20460;-84
2022/05/05 04:36:27;;;;;;;10.40;9.30;;;13.10;99.90;;;;;;5027525;28;20529;-84
2022/05/05 04:38:54;;;;;;;10.83;9.17;;;13.10;99.90;;;;;;5034894;28;20482;-86
2022/05/05 04:41:21;;;;;;;11.60;8.80;;;13.20;99.90;;;;;;5039198;28;20438;-87
2022/05/05 04:43:49;;;;;;;10.80;9.07;;;13.20;99.90;;;;;;5038625;28;20485;-87
2022/05/05 04:46:16;;;;;;;12.47;7.93;;;13.40;99.90;;;;;;5039969;28;20439;-86
2022/05/05 04:48:43;;;;;;;8.10;7.30;;;13.30;99.90;;;;;;5036035;28;20968;-86
2022/05/05 04:51:09;;;;;;;11.83;9.13;;;13.30;99.90;;;;;;5027860;28;20537;-85
2022/05/05 04:53:36;;;;;;;10.20;8.03;;;13.20;99.90;;;;;;5025945;28;20452;-86
2022/05/05 04:56:03;;;;;;;11.60;8.90;;;13.20;99.90;;;;;;5027101;28;20474;-87
2022/05/05 04:58:33;;;;;;;13.10;10.30;;;13.20;99.90;;;;;;5028922;28;20528;-87
2022/05/05 05:01:01;;;;;;;12.27;9.87;;;13.20;99.90;;;;;;5026862;28;20461;-88
2022/05/05 05:03:35;;;;;;;10.47;9.07;;;13.20;99.90;;;;;;5025583;28;20527;-86
2022/05/05 05:06:02;;;;;;;12.57;10.13;;;13.20;99.90;;;;;;5022779;28;20421;-88
2022/05/05 05:08:29;;;;;;;12.00;9.80;;;13.20;99.90;;;;;;5023144;28;20473;-85
2022/05/05 05:11:00;;;;;;;10.83;9.73;;;13.40;99.90;;;;;;5024992;28;20448;-89
2022/05/05 05:13:27;;;;;;;10.53;8.93;;;13.40;99.90;;;;;;5030632;28;20420;-86
2022/05/05 05:15:54;;;;;;;10.87;9.03;;;13.70;99.90;;;;;;5036589;28;20548;-87
2022/05/05 05:18:22;;;;;;;11.67;10.10;;;13.80;99.90;;;;;;5031259;28;20467;-87
2022/05/05 05:20:49;;;;;;;11.13;9.17;;;13.70;99.90;;;;;;5025762;28;20431;-89
2022/05/05 05:23:16;;;;;;;10.20;9.10;;;13.70;99.90;;;;;;5028028;28;20450;-87
2022/05/05 05:25:43;;;;;;;10.80;9.23;;;13.80;99.90;;;;;;5028343;28;20460;-88
2022/05/05 05:28:11;;;;;;;11.90;10.70;;;13.80;99.90;;;;;;5027485;28;20451;-86
2022/05/05 05:30:38;;;;;;;10.57;9.47;;;13.90;99.90;;;;;;5036976;28;20458;-87
2022/05/05 05:33:05;;;;;;;11.40;10.17;;;13.90;99.90;;;;;;5030256;28;20448;-87
2022/05/05 05:35:33;;;;;;;14.93;9.57;;;14.00;99.90;;;;;;5024340;28;20470;-87
2022/05/05 05:38:00;;;;;;;15.87;9.37;;;14.00;99.90;;;;;;5024197;28;20482;-87
2022/05/05 05:40:27;;;;;;;10.70;8.70;;;14.10;99.90;;;;;;5023779;28;20549;-86
2022/05/05 05:42:55;;;;;;;14.07;8.23;;;14.10;99.90;;;;;;5026316;28;20454;-87
2022/05/05 05:45:22;;;;;;;11.30;9.40;;;14.10;99.90;;;;;;5032170;28;20435;-87
2022/05/05 05:47:49;;;;;;;12.30;9.60;;;14.10;99.90;;;;;;5029959;28;20470;-87
2022/05/05 05:50:16;;;;;;;9.93;8.93;;;14.10;99.90;;;;;;5029486;28;20446;-87
2022/05/05 05:52:44;;;;;;;10.67;9.33;;;14.00;99.90;;;;;;5028583;28;20454;-86
2022/05/05 05:55:11;;;;;;;13.50;10.73;;;14.20;99.90;;;;;;5025304;28;20474;-87
2022/05/05 05:57:38;;;;;;;12.30;11.00;;;14.00;99.90;;;;;;5024380;28;20481;-86
2022/05/05 06:00:07;;;;;;;13.03;10.80;;;14.00;99.90;;;;;;5027206;28;20508;-87
2022/05/05 06:05:18;;;;;;;12.80;9.93;;;14.00;99.90;;;;;;5029014;28;20436;-88
2022/05/05 06:07:46;;;;;;;12.73;10.73;;;14.00;99.90;;;;;;5024768;28;20448;-86
2022/05/05 06:10:13;;;;;;;12.63;11.37;;;14.00;99.90;;;;;;5023522;28;20896;-88
2022/05/05 06:12:40;;;;;;;12.93;10.40;;;14.10;99.90;;;;;;5024002;28;20460;-88
2022/05/05 06:15:08;;;;;;;13.50;11.63;;;14.20;99.90;;;;;;5025101;28;20429;-87
2022/05/05 06:17:35;;;;;;;12.90;11.40;;;14.20;99.90;;;;;;5027759;28;20447;-89
2022/05/05 06:20:04;;;;;;;13.07;11.10;;;14.20;99.90;;;;;;5027563;28;20487;-88
2022/05/05 06:22:31;;;;;;;14.17;11.73;;;14.30;99.90;;;;;;5026923;28;20847;-88
2022/05/05 06:24:59;;;;;;;12.77;10.60;;;14.50;99.90;;;;;;5025630;28;20433;-87
2022/05/05 06:27:26;;;;;;;12.63;11.03;;;14.50;99.90;;;;;;5025165;28;20538;-87
2022/05/05 06:29:53;;;;;;;15.07;12.90;;;14.70;99.90;;;;;;5023335;28;20421;-87
2022/05/05 06:32:20;;;;;;;15.60;13.20;;;14.70;99.90;;;;;;5024597;28;20550;-88
2022/05/05 06:34:47;;;;;;;14.97;12.10;;;14.70;99.90;;;;;;5023961;28;20449;-87
2022/05/05 06:37:13;;;;;;;13.10;10.67;;;14.80;99.90;;;;;;5022430;28;20494;-88
2022/05/05 06:39:40;;;;;;;13.40;11.97;;;14.90;99.90;;;;;;5023311;28;20474;-88
2022/05/05 06:42:09;;;;;;;11.30;9.80;;;14.80;99.90;;;;;;5022814;28;20526;-87
2022/05/05 06:44:36;;;;;;;14.20;10.60;;;15.00;99.90;;;;;;5022580;28;20453;-86
2022/05/05 06:47:04;;;;;;;12.97;10.57;;;14.90;99.90;;;;;;5023160;28;20549;-86
2022/05/05 06:49:31;;;;;;;11.60;9.70;;;14.90;99.90;;;;;;5021380;28;20434;-87
2022/05/05 06:51:57;;;;;;;10.80;9.70;;;14.90;99.90;;;;;;5023867;28;20524;-86
2022/05/05 06:54:24;;;;;;;13.37;11.00;;;15.10;99.90;;;;;;5026091;28;20541;-86
2022/05/05 06:56:51;;;;;;;12.67;9.80;;;15.10;99.90;;;;;;5026063;28;20561;-87
2022/05/05 06:59:20;;;;;;;11.50;9.60;;;14.80;99.90;;;;;;5026874;28;20486;-88
2022/05/05 07:01:57;;;;;;;12.50;9.37;;;14.90;99.90;;;;;;5029417;28;20468;-85
2022/05/05 07:07:11;;;;;;;13.17;9.50;;;14.80;99.90;;;;;;5026887;28;20427;-87
2022/05/05 07:12:23;;;;;;;11.97;10.43;;;14.70;99.90;;;;;;5025224;28;20388;-87
2022/05/05 07:14:52;;;;;;;12.53;10.17;;;14.70;99.90;;;;;;5027371;28;20886;-87
2022/05/05 07:17:19;;;;;;;12.93;9.83;;;14.80;99.90;;;;;;5031935;28;20462;-89
2022/05/05 07:19:46;;;;;;;12.70;11.40;;;14.90;99.90;;;;;;5033457;28;20465;-87
2022/05/05 07:22:12;;;;;;;13.00;10.03;;;14.90;99.90;;;;;;5036262;28;20411;-88
2022/05/05 07:24:39;;;;;;;11.90;10.60;;;15.00;99.90;;;;;;5038382;28;20417;-89
2022/05/05 07:27:07;;;;;;;11.97;10.63;;;15.10;99.90;;;;;;5038435;28;20520;-89
2022/05/05 07:29:34;;;;;;;12.03;10.00;;;15.30;99.90;;;;;;5040595;28;20421;-87
2022/05/05 07:32:02;;;;;;;10.67;9.20;;;15.30;99.90;;;;;;5037051;28;20443;-88
2022/05/05 07:34:29;;;;;;;11.87;9.93;;;15.20;99.90;;;;;;5039268;28;20417;-88
2022/05/05 07:36:55;;;;;;;11.50;9.80;;;15.10;99.90;;;;;;5038896;28;20429;-87
2022/05/05 07:39:23;;;;;;;14.70;10.93;;;15.10;99.90;;;;;;5039721;28;20457;-86
2022/05/05 07:41:50;;;;;;;13.07;10.37;;;15.10;99.90;;;;;;5039757;28;20438;-87
2022/05/05 07:44:17;;;;;;;13.33;10.50;;;15.10;99.90;;;;;;5033212;28;20488;-89
2022/05/05 07:46:44;;;;;;;13.67;11.80;;;15.00;99.90;;;;;;5029225;28;20405;-87
2022/05/05 07:49:13;;;;;;;12.37;11.07;;;15.00;99.90;;;;;;5030196;28;20501;-87
2022/05/05 07:51:41;;;;;;;11.97;10.73;;;15.10;99.90;;;;;;5030882;28;20571;-88
2022/05/05 07:56:53;;;;;;;12.13;10.93;;;15.40;99.90;;;;;;5033300;28;20592;-88
2022/05/05 07:59:20;;;;;;;14.90;11.60;;;15.50;99.90;;;;;;5034119;28;20492;-89
2022/05/05 08:01:47;;;;;;;15.17;11.53;;;15.30;99.90;;;;;;5027130;28;20592;-89
2022/05/05 08:04:16;;;;;;;14.33;11.43;;;15.20;99.90;;;;;;5029283;28;20474;-89
2022/05/05 08:06:43;;;;;;;13.77;11.33;;;15.30;99.90;;;;;;5026661;28;20413;-88
2022/05/05 08:09:11;;;;;;;20.83;11.07;;;15.50;99.90;;;;;;5026419;28;20486;-88
2022/05/05 08:11:39;;;;;;;15.20;11.70;;;15.40;99.90;;;;;;5030707;28;20449;-87
2022/05/05 08:14:09;;;;;;;14.37;11.03;;;15.30;99.90;;;;;;5026189;28;20445;-88
2022/05/05 08:16:36;;;;;;;14.17;11.43;;;15.20;99.90;;;;;;5024807;28;20501;-86
2022/05/05 08:19:03;;;;;;;14.60;12.80;;;15.40;99.90;;;;;;5024046;28;20516;-89
2022/05/05 08:21:32;;;;;;;18.90;15.30;;;15.20;99.90;;;;;;5031944;28;20462;-87
2022/05/05 08:29:24;;;;;;;15.93;13.33;;;15.30;99.90;;;;;;5022801;28;20484;-87
2022/05/05 08:31:50;;;;;;;15.10;12.83;;;15.20;99.90;;;;;;5023842;28;20454;-88
2022/05/05 08:34:17;;;;;;;14.33;11.57;;;15.00;99.90;;;;;;5024214;28;20427;-87
2022/05/05 08:36:46;;;;;;;16.03;12.40;;;15.10;99.90;;;;;;5022965;28;20471;-87
2022/05/05 08:39:12;;;;;;;12.40;10.90;;;15.10;99.90;;;;;;5022436;28;20538;-86
2022/05/05 08:41:40;;;;;;;14.80;11.83;;;15.20;99.90;;;;;;5022591;28;20988;-87
2022/05/05 08:44:08;;;;;;;16.57;12.00;;;15.20;99.90;;;;;;5028831;28;20450;-87
2022/05/05 08:46:36;;;;;;;15.27;11.67;;;15.30;99.90;;;;;;5036261;28;20459;-88
2022/05/05 08:49:05;;;;;;;13.50;12.10;;;15.40;99.90;;;;;;5032149;28;20916;-88
2022/05/05 08:51:42;;;;;;;16.90;13.43;;;15.60;99.90;;;;;;5027717;28;20435;-88
2022/05/05 08:54:16;;;;;;;16.57;14.57;;;15.60;99.90;;;;;;5024869;28;20966;-88
2022/05/05 08:56:43;;;;;;;15.73;14.13;;;15.60;99.90;;;;;;5023064;28;20984;-87
2022/05/05 08:59:11;;;;;;;18.10;13.30;;;15.60;99.90;;;;;;5022880;28;20545;-87
2022/05/05 09:01:39;;;;;;;18.33;13.50;;;15.70;99.90;;;;;;5022906;28;20553;-86
2022/05/05 09:04:06;;;;;;;18.30;14.80;;;15.80;99.90;;;;;;5023865;28;20455;-88
2022/05/05 09:06:44;;;;;;;21.50;16.43;;;15.70;99.90;;;;;;5021885;28;20911;-87
2022/05/05 09:09:27;;;;;;;18.90;16.90;;;15.60;99.90;;;;;;5022503;28;20889;-88
2022/05/05 09:12:15;;;;;;;18.93;16.93;;;15.60;99.90;;;;;;5033401;28;20445;-88
2022/05/05 09:14:44;;;;;;;19.70;17.23;;;15.70;99.90;;;;;;5027592;28;20454;-87
2022/05/05 09:17:14;;;;;;;18.53;16.63;;;15.70;99.90;;;;;;5022587;28;20471;-86
2022/05/05 09:19:43;;;;;;;20.73;17.23;;;15.70;99.90;;;;;;5022008;28;20543;-88
2022/05/05 09:22:11;;;;;;;19.70;17.47;;;15.80;99.90;;;;;;5023891;28;21015;-88
2022/05/05 09:24:43;;;;;;;19.30;16.83;;;15.70;99.90;;;;;;5026088;28;20518;-87
2022/05/05 09:27:21;;;;;;;19.00;16.93;;;15.80;99.90;;;;;;5021326;28;20536;-88
2022/05/05 09:30:04;;;;;;;20.83;18.73;;;15.90;99.90;;;;;;5024460;28;20409;-87
2022/05/05 09:32:32;;;;;;;20.63;18.43;;;15.90;99.90;;;;;;5023368;28;20413;-87
2022/05/05 09:35:02;;;;;;;19.00;17.00;;;15.80;99.90;;;;;;5022699;28;20448;-87
2022/05/05 09:37:30;;;;;;;22.53;20.33;;;15.70;99.90;;;;;;5022220;28;20460;-87
2022/05/05 09:39:59;;;;;;;21.03;18.70;;;15.60;99.90;;;;;;5027915;28;20482;-87
2022/05/05 09:42:41;;;;;;;22.53;16.10;;;15.60;99.90;;;;;;5036712;28;20460;-86
2022/05/05 09:45:19;;;;;;;20.27;16.13;;;15.80;99.90;;;;;;5037605;28;20416;-86
2022/05/05 09:47:51;;;;;;;21.73;16.87;;;15.80;99.90;;;;;;5037312;28;20453;-88
2022/05/05 09:50:20;;;;;;;22.00;19.03;;;15.70;99.90;;;;;;5037398;28;20434;-88
2022/05/05 09:58:22;;;;;;;19.77;17.50;;;15.60;99.90;;;;;;5024644;28;20475;-87
2022/05/05 10:00:58;;;;;;;26.27;17.80;;;15.80;99.90;;;;;;5023603;28;20490;-88
2022/05/05 10:06:25;;;;;;;23.73;18.70;;;16.00;99.90;;;;;;5033935;28;20422;-87
2022/05/05 10:08:54;;;;;;;21.10;17.37;;;16.00;99.90;;;;;;5036393;28;20466;-89
2022/05/05 10:11:23;;;;;;;20.07;17.97;;;16.20;99.90;;;;;;5026590;28;20426;-87
2022/05/05 10:13:50;;;;;;;18.53;16.50;;;16.30;99.90;;;;;;5024910;28;20444;-87
2022/05/05 10:16:20;;;;;;;22.60;17.97;;;16.50;99.90;;;;;;5024084;28;20454;-87
2022/05/05 10:18:47;;;;;;;20.47;18.20;;;16.50;99.90;;;;;;5027542;28;20506;-87
2022/05/05 10:21:20;;;;;;;21.63;17.30;;;16.60;99.90;;;;;;5036835;28;20466;-87
2022/05/05 10:24:01;;;;;;;19.97;17.80;;;16.80;99.90;;;;;;5033088;28;20463;-89
2022/05/05 10:26:29;;;;;;;21.50;19.30;;;16.70;99.90;;;;;;5032239;28;20409;-88
2022/05/05 10:28:56;;;;;;;20.57;18.40;;;16.50;99.90;;;;;;5034177;28;20429;-90
2022/05/05 10:31:42;;;;;;;20.87;18.67;;;16.50;99.90;;;;;;5025260;28;20533;-87
2022/05/05 10:34:15;;;;;;;22.30;19.50;;;16.60;99.90;;;;;;5022182;28;20774;-87
2022/05/05 10:36:58;;;;;;;21.57;18.63;;;16.60;99.90;;;;;;5023076;28;20406;-88
2022/05/05 10:39:26;;;;;;;20.80;18.53;;;16.60;99.90;;;;;;5034138;28;20417;-87
2022/05/05 10:45:59;;;;;;;22.00;18.07;;;17.00;99.90;;;;;;5015607;28;20450;-89
2022/05/05 11:01:19;;;;;;;21.73;19.37;;;17.20;99.90;;;;;;5003357;28;20474;-88
2022/05/05 11:04:30;;;;;;;21.63;19.43;;;17.10;99.90;;;;;;4982151;28;21176;-89
2022/05/05 11:07:38;;;;;;;23.10;19.73;;;17.20;99.90;;;;;;4979635;28;20868;-90
2022/05/05 11:10:26;;;;;;;22.70;20.27;;;17.10;99.90;;;;;;4979935;28;20471;-89
2022/05/05 11:12:54;;;;;;;22.97;20.57;;;16.90;99.90;;;;;;4985243;28;20472;-89
2022/05/05 11:24:00;;;;;;;24.80;21.40;;;16.50;99.90;;;;;;4978001;28;20893;-88
2022/05/05 11:26:35;;;;;;;22.73;20.37;;;16.70;99.90;;;;;;4990697;28;20423;-89
2022/05/05 11:29:29;;;;;;;23.30;20.33;;;16.60;99.90;;;;;;4979142;28;20387;-87
2022/05/05 11:32:12;;;;;;;23.10;20.60;;;16.60;99.90;;;;;;4979596;28;20451;-88
2022/05/05 11:34:45;;;;;;;23.33;20.83;;;16.40;99.90;;;;;;4979699;28;20941;-88
2022/05/05 11:37:33;;;;;;;26.73;22.03;;;16.30;99.90;;;;;;4983787;28;20391;-90
2022/05/05 11:40:09;;;;;;;23.90;21.30;;;16.20;99.90;;;;;;4995180;28;20482;-88
2022/05/05 11:46:07;;;;;;;24.40;21.40;;;16.00;99.90;;;;;;4980936;28;20427;-89
2022/05/05 11:49:14;;;;;;;23.83;21.27;;;15.90;99.90;;;;;;4981528;28;20774;-90
2022/05/05 11:54:49;;;;;;;;;;;;;;;;;;;;;
2022/05/05 11:57:38;;;;;;;24.90;22.10;;;15.60;99.90;;;;;;4962503;29;20445;-89
2022/05/05 12:03:31;;;;;;;25.60;22.87;;;15.50;99.90;;;;;;4973532;28;20482;-88
2022/05/05 12:06:09;;;;;;;35.80;22.10;;;15.60;99.90;;;;;;4961431;29;20515;-90
2022/05/05 12:08:41;;;;;;;23.60;21.10;;;15.60;99.90;;;;;;4959990;29;20427;-89
2022/05/05 12:11:21;;;;;;;24.87;22.27;;;15.60;99.90;;;;;;4960915;29;20820;-89
2022/05/05 12:13:58;;;;;;;26.87;21.27;;;15.60;99.90;;;;;;4961902;29;20798;-88
2022/05/05 12:16:34;;;;;;;25.33;22.63;;;15.60;99.90;;;;;;4970556;28;20500;-88
2022/05/05 12:19:34;;;;;;;34.10;24.10;;;15.40;99.90;;;;;;4970011;29;20483;-89
2022/05/05 12:28:32;;;;;;;32.57;26.50;;;15.50;99.90;;;;;;4942417;28;20595;-90
2022/05/05 12:31:46;;;;;;;30.27;25.50;;;15.50;99.90;;;;;;4964041;28;20468;-89
2022/05/05 12:34:25;;;;;;;32.47;25.23;;;15.50;99.90;;;;;;4946088;29;20468;-89
2022/05/05 12:37:21;;;;;;;30.43;25.57;;;15.50;99.90;;;;;;4947192;29;20492;-89
2022/05/05 12:40:54;;;;;;;29.73;26.33;;;15.60;99.90;;;;;;4945559;29;20464;-89
2022/05/05 12:43:31;;;;;;;30.90;25.00;;;15.80;99.90;;;;;;4942394;29;20482;-89
2022/05/05 12:50:00;;;;;;;30.07;24.83;;;15.80;99.90;;;;;;4903595;29;20420;-88
2022/05/05 13:04:52;;;;;;;30.50;24.23;;;16.00;99.90;;;;;;4936440;29;20464;-89
2022/05/05 13:16:42;;;;;;;27.23;23.47;;;16.50;99.90;;;;;;4901677;29;20987;-89
2022/05/05 13:28:00;;;;;;;27.80;21.73;;;16.60;99.90;;;;;;4945072;29;20771;-88
2022/05/05 13:34:10;;;;;;;26.53;19.93;;;16.60;99.90;;;;;;4943436;29;20473;-89
2022/05/05 13:36:51;;;;;;;26.30;22.97;;;16.70;99.90;;;;;;4941787;29;20435;-89
2022/05/05 13:54:29;;;;;;;31.27;23.43;;;16.80;99.90;;;;;;5137215;28;20798;-89
2022/05/05 13:57:18;;;;;;;23.50;19.70;;;16.80;99.90;;;;;;5137427;28;20441;-89
2022/05/05 14:03:39;;;;;;;29.67;21.67;;;16.50;99.90;;;;;;5091811;28;20803;-89
2022/05/05 14:13:02;;;;;;;30.40;22.47;;;17.00;99.90;;;;;;5107387;27;20429;-91
2022/05/05 14:19:27;;;;;;;;;;;;;;;;;;;;;
2022/05/05 14:51:16;;;;;;;24.53;21.90;;;18.00;99.90;;;;;;6248286;22;20375;-89
2022/05/05 14:54:09;;;;;;;26.47;23.50;;;18.20;99.90;;;;;;6363574;22;20392;-90
2022/05/05 14:56:40;;;;;;;25.73;22.10;;;18.70;99.90;;;;;;6355761;22;20419;-88
2022/05/05 15:02:05;;;;;;;24.53;21.73;;;18.20;99.90;;;;;;6272266;22;20777;-88
2022/05/05 15:05:01;;;;;;;27.13;22.10;;;18.30;99.90;;;;;;6270992;22;20452;-88
2022/05/05 15:07:34;;;;;;;28.20;24.07;;;18.40;99.90;;;;;;6267448;22;20390;-89
2022/05/05 15:10:04;;;;;;;26.83;23.10;;;18.20;99.90;;;;;;6267431;22;20394;-89
2022/05/05 15:12:39;;;;;;;25.60;22.90;;;18.30;99.90;;;;;;6266637;23;20443;-88
2022/05/05 15:15:21;;;;;;;29.90;25.73;;;18.30;99.90;;;;;;6271735;22;20406;-88
2022/05/05 15:21:07;;;;;;;30.20;24.40;;;18.60;99.90;;;;;;6261936;22;20374;-90
2022/05/05 15:23:41;;;;;;;31.40;20.40;;;18.20;99.90;;;;;;6261196;22;20399;-88
2022/05/05 15:26:20;;;;;;;39.00;31.47;;;17.00;99.90;;;;;;6267476;22;20396;-89
2022/05/05 15:28:54;;;;;;;36.83;30.10;;;16.80;99.90;;;;;;6269851;22;20446;-90
2022/05/05 15:34:23;;;;;;;33.37;24.40;;;16.90;99.90;;;;;;6230778;22;20898;-89
2022/05/05 15:37:09;;;;;;;34.43;28.80;;;16.80;99.90;;;;;;6258803;22;20418;-89
2022/05/05 15:39:40;;;;;;;35.10;28.40;;;16.60;99.90;;;;;;6257990;22;20390;-89
2022/05/05 15:42:17;;;;;;;31.17;27.00;;;16.70;99.90;;;;;;6257856;22;20916;-89
2022/05/05 15:44:54;;;;;;;34.43;28.40;;;16.90;99.90;;;;;;6252781;22;20387;-89
2022/05/05 15:47:28;;;;;;;36.80;26.40;;;17.00;99.90;;;;;;6251916;23;20781;-90
2022/05/05 15:49:58;;;;;;;36.83;29.63;;;16.90;99.90;;;;;;6251852;22;20527;-89
2022/05/05 15:55:32;;;;;;;36.33;22.80;;;17.60;99.90;;;;;;6252208;22;20386;-89
2022/05/05 16:03:55;;;;;;;34.17;29.70;;;17.40;99.90;;;;;;6270723;22;20448;-89